NJE230U LGMK-LGAV
Flight info
| Callsign | NJE230U |
|---|---|
| Flight time | 0h 26m |
| Altitude | 18000 |
| Route | VARIX |
| Aircraft | CL60/M-SBDE1E2E3FGHIJ1J4J5J7M3RWXYZ/LB1V1D1 |
Departure
| Time | 2026-04-23 06:46 |
|---|---|
| Airport | Mykonos Island National Airport (LGMK) |
Arrival
| Time | 2026-04-23 07:13 |
|---|---|
| Airport | Athens Eleftherios Venizelos International Airport (LGAV) |
| Time | Latitude | Longitude | Altitude | Speed | Heading |
|---|---|---|---|---|---|
| 2026-04-23 06:42 | 37.43602 | 25.34673 | 409 ft | 0 kts | 342° |
| 2026-04-23 06:42 | 37.43603 | 25.34672 | 409 ft | 1 kts | 342° |
| 2026-04-23 06:42 | 37.43623 | 25.34672 | 409 ft | 0 kts | 29° |
| 2026-04-23 06:43 | 37.43624 | 25.34672 | 409 ft | 1 kts | 29° |
| 2026-04-23 06:43 | 37.43666 | 25.34711 | 409 ft | 10 kts | 57° |
| 2026-04-23 06:44 | 37.43632 | 25.34773 | 412 ft | 11 kts | 160° |
| 2026-04-23 06:44 | 37.43548 | 25.34811 | 413 ft | 14 kts | 160° |
| 2026-04-23 06:44 | 37.43446 | 25.34856 | 416 ft | 16 kts | 160° |
| 2026-04-23 06:44 | 37.43328 | 25.34909 | 417 ft | 19 kts | 160° |
| 2026-04-23 06:45 | 37.43179 | 25.34973 | 414 ft | 25 kts | 161° |
| 2026-04-23 06:45 | 37.42998 | 25.35053 | 411 ft | 30 kts | 160° |
| 2026-04-23 06:45 | 37.42802 | 25.35140 | 401 ft | 15 kts | 159° |
| 2026-04-23 06:45 | 37.42763 | 25.35161 | 399 ft | 5 kts | 315° |
| 2026-04-23 06:46 | 37.42813 | 25.35136 | 401 ft | 22 kts | 340° |
| 2026-04-23 06:46 | 37.43288 | 25.34926 | 418 ft | 123 kts | 340° |
| 2026-04-23 06:46 | 37.44277 | 25.34489 | 1006 ft | 164 kts | 340° |
| 2026-04-23 06:46 | 37.45325 | 25.33807 | 2070 ft | 183 kts | 330° |
| 2026-04-23 06:47 | 37.46309 | 25.32756 | 2915 ft | 199 kts | 309° |
| 2026-04-23 06:47 | 37.46844 | 25.31017 | 3762 ft | 237 kts | 287° |
| 2026-04-23 06:47 | 37.47208 | 25.28952 | 5130 ft | 251 kts | 284° |
| 2026-04-23 06:47 | 37.47555 | 25.26871 | 6671 ft | 254 kts | 283° |
| 2026-04-23 06:48 | 37.47916 | 25.24724 | 8229 ft | 257 kts | 282° |
| 2026-04-23 06:48 | 37.48207 | 25.22573 | 9795 ft | 259 kts | 273° |
| 2026-04-23 06:48 | 37.47985 | 25.20420 | 11384 ft | 260 kts | 255° |
| 2026-04-23 06:48 | 37.47130 | 25.18446 | 12909 ft | 265 kts | 238° |
| 2026-04-23 06:49 | 37.45978 | 25.16711 | 14305 ft | 267 kts | 234° |
| 2026-04-23 06:49 | 37.44741 | 25.14973 | 15480 ft | 274 kts | 233° |
| 2026-04-23 06:49 | 37.43465 | 25.13197 | 16566 ft | 282 kts | 233° |
| 2026-04-23 06:49 | 37.42139 | 25.11348 | 17427 ft | 294 kts | 233° |
| 2026-04-23 06:50 | 37.40749 | 25.09410 | 17831 ft | 297 kts | 233° |
| 2026-04-23 06:50 | 37.39379 | 25.07507 | 17957 ft | 295 kts | 233° |
| 2026-04-23 06:50 | 37.38031 | 25.05552 | 17974 ft | 291 kts | 239° |
| 2026-04-23 06:50 | 37.37213 | 25.03301 | 17981 ft | 282 kts | 259° |
| 2026-04-23 06:51 | 37.37148 | 25.00831 | 17978 ft | 298 kts | 278° |
| 2026-04-23 06:51 | 37.37750 | 24.98170 | 17971 ft | 331 kts | 287° |
| 2026-04-23 06:51 | 37.38509 | 24.95341 | 17975 ft | 347 kts | 286° |
| 2026-04-23 06:51 | 37.39274 | 24.92474 | 17978 ft | 348 kts | 286° |
| 2026-04-23 06:52 | 37.40042 | 24.89592 | 17982 ft | 346 kts | 287° |
| 2026-04-23 06:52 | 37.40797 | 24.86754 | 17976 ft | 346 kts | 286° |
| 2026-04-23 06:52 | 37.41555 | 24.83898 | 17981 ft | 345 kts | 287° |
| 2026-04-23 06:52 | 37.42312 | 24.81043 | 17977 ft | 344 kts | 286° |
| 2026-04-23 06:53 | 37.43073 | 24.78168 | 17975 ft | 344 kts | 286° |
| 2026-04-23 06:53 | 37.43832 | 24.75297 | 17980 ft | 345 kts | 287° |
| 2026-04-23 06:53 | 37.44583 | 24.72450 | 17980 ft | 345 kts | 287° |
| 2026-04-23 06:53 | 37.45333 | 24.69607 | 17981 ft | 344 kts | 287° |
| 2026-04-23 06:54 | 37.46084 | 24.66754 | 17978 ft | 344 kts | 287° |
| 2026-04-23 06:54 | 37.46829 | 24.63920 | 17982 ft | 344 kts | 286° |
| 2026-04-23 06:54 | 37.47581 | 24.61057 | 17982 ft | 344 kts | 287° |
| 2026-04-23 06:54 | 37.48329 | 24.58201 | 17980 ft | 344 kts | 286° |
| 2026-04-23 06:55 | 37.49080 | 24.55331 | 17980 ft | 344 kts | 287° |
| 2026-04-23 06:55 | 37.49823 | 24.52493 | 17975 ft | 344 kts | 287° |
| 2026-04-23 06:55 | 37.50566 | 24.49649 | 17984 ft | 344 kts | 286° |
| 2026-04-23 06:55 | 37.51321 | 24.46760 | 17977 ft | 343 kts | 286° |
| 2026-04-23 06:56 | 37.52063 | 24.43913 | 17981 ft | 343 kts | 286° |
| 2026-04-23 06:56 | 37.52801 | 24.41080 | 17987 ft | 341 kts | 287° |
| 2026-04-23 06:56 | 37.53525 | 24.38300 | 17813 ft | 328 kts | 286° |
| 2026-04-23 06:56 | 37.54221 | 24.35630 | 17425 ft | 317 kts | 286° |
| 2026-04-23 06:57 | 37.54897 | 24.33027 | 17034 ft | 307 kts | 286° |
| 2026-04-23 06:57 | 37.55523 | 24.30511 | 16645 ft | 298 kts | 282° |
| 2026-04-23 06:57 | 37.55651 | 24.27960 | 16258 ft | 290 kts | 268° |
| 2026-04-23 06:57 | 37.55528 | 24.25460 | 15876 ft | 283 kts | 267° |
| 2026-04-23 06:58 | 37.55416 | 24.23032 | 15512 ft | 276 kts | 268° |
| 2026-04-23 06:58 | 37.55308 | 24.20663 | 15153 ft | 271 kts | 268° |
| 2026-04-23 06:58 | 37.55200 | 24.18304 | 14800 ft | 265 kts | 268° |
| 2026-04-23 06:58 | 37.55096 | 24.16040 | 14452 ft | 261 kts | 268° |
| 2026-04-23 06:59 | 37.54990 | 24.13737 | 14103 ft | 262 kts | 268° |
| 2026-04-23 06:59 | 37.54885 | 24.11463 | 13757 ft | 263 kts | 268° |
| 2026-04-23 06:59 | 37.54779 | 24.09159 | 13406 ft | 262 kts | 268° |
| 2026-04-23 06:59 | 37.54673 | 24.06879 | 13064 ft | 262 kts | 268° |
| 2026-04-23 07:00 | 37.54567 | 24.04605 | 12723 ft | 262 kts | 268° |
| 2026-04-23 07:00 | 37.54460 | 24.02327 | 12376 ft | 262 kts | 268° |
| 2026-04-23 07:00 | 37.54353 | 24.00022 | 12021 ft | 261 kts | 268° |
| 2026-04-23 07:00 | 37.54246 | 23.97754 | 11679 ft | 260 kts | 268° |
| 2026-04-23 07:01 | 37.54139 | 23.95502 | 11336 ft | 258 kts | 268° |
| 2026-04-23 07:01 | 37.54034 | 23.93282 | 11002 ft | 254 kts | 268° |
| 2026-04-23 07:01 | 37.53928 | 23.91060 | 10662 ft | 251 kts | 268° |
| 2026-04-23 07:01 | 37.53824 | 23.88888 | 10333 ft | 247 kts | 268° |
| 2026-04-23 07:02 | 37.53722 | 23.86763 | 10012 ft | 244 kts | 268° |
| 2026-04-23 07:02 | 37.53620 | 23.84646 | 9688 ft | 241 kts | 268° |
| 2026-04-23 07:02 | 37.53519 | 23.82559 | 9372 ft | 238 kts | 268° |
| 2026-04-23 07:02 | 37.53418 | 23.80477 | 9055 ft | 235 kts | 268° |
| 2026-04-23 07:03 | 37.53333 | 23.78445 | 8747 ft | 232 kts | 272° |
| 2026-04-23 07:03 | 37.53667 | 23.76488 | 8367 ft | 231 kts | 295° |
| 2026-04-23 07:03 | 37.54661 | 23.74888 | 7929 ft | 234 kts | 321° |
| 2026-04-23 07:03 | 37.56124 | 23.74021 | 7524 ft | 240 kts | 346° |
| 2026-04-23 07:04 | 37.57794 | 23.73832 | 7129 ft | 241 kts | 354° |
| 2026-04-23 07:04 | 37.59462 | 23.73715 | 6857 ft | 236 kts | 354° |
| 2026-04-23 07:04 | 37.61082 | 23.73592 | 6546 ft | 233 kts | 354° |
| 2026-04-23 07:04 | 37.62697 | 23.73470 | 6239 ft | 230 kts | 354° |
| 2026-04-23 07:05 | 37.64279 | 23.73349 | 5939 ft | 227 kts | 355° |
| 2026-04-23 07:05 | 37.65842 | 23.73229 | 5641 ft | 224 kts | 355° |
| 2026-04-23 07:05 | 37.67386 | 23.73111 | 5347 ft | 220 kts | 356° |
| 2026-04-23 07:05 | 37.68891 | 23.72995 | 5059 ft | 217 kts | 356° |
| 2026-04-23 07:06 | 37.70385 | 23.72879 | 4775 ft | 213 kts | 357° |
| 2026-04-23 07:06 | 37.71836 | 23.72960 | 4496 ft | 209 kts | 16° |
| 2026-04-23 07:06 | 37.73102 | 23.73836 | 4216 ft | 206 kts | 36° |
| 2026-04-23 07:06 | 37.74242 | 23.74928 | 3927 ft | 204 kts | 35° |
| 2026-04-23 07:07 | 37.75373 | 23.75999 | 3643 ft | 201 kts | 36° |
| 2026-04-23 07:07 | 37.76483 | 23.77050 | 3292 ft | 197 kts | 36° |
| 2026-04-23 07:07 | 37.77522 | 23.78033 | 3140 ft | 177 kts | 36° |
| 2026-04-23 07:07 | 37.78497 | 23.78955 | 3133 ft | 174 kts | 35° |
| 2026-04-23 07:08 | 37.79469 | 23.79873 | 3139 ft | 172 kts | 35° |
| 2026-04-23 07:08 | 37.80430 | 23.80781 | 3139 ft | 172 kts | 35° |
| 2026-04-23 07:08 | 37.81370 | 23.81671 | 2939 ft | 162 kts | 35° |
| 2026-04-23 07:08 | 37.82192 | 23.82454 | 2768 ft | 133 kts | 35° |
| 2026-04-23 07:09 | 37.82875 | 23.83103 | 2620 ft | 116 kts | 34° |
| 2026-04-23 07:09 | 37.83511 | 23.83703 | 2448 ft | 114 kts | 34° |
| 2026-04-23 07:09 | 37.84144 | 23.84300 | 2297 ft | 112 kts | 34° |
| 2026-04-23 07:09 | 37.84776 | 23.84897 | 2150 ft | 115 kts | 35° |
| 2026-04-23 07:10 | 37.85415 | 23.85500 | 1994 ft | 113 kts | 34° |
| 2026-04-23 07:10 | 37.86047 | 23.86097 | 1799 ft | 115 kts | 34° |
| 2026-04-23 07:10 | 37.86670 | 23.86701 | 1647 ft | 110 kts | 37° |
| 2026-04-23 07:10 | 37.87282 | 23.87294 | 1497 ft | 114 kts | 37° |
| 2026-04-23 07:11 | 37.87908 | 23.87901 | 1349 ft | 111 kts | 35° |
| 2026-04-23 07:11 | 37.88538 | 23.88488 | 1185 ft | 113 kts | 34° |
| 2026-04-23 07:11 | 37.89178 | 23.89067 | 1024 ft | 113 kts | 35° |
| 2026-04-23 07:12 | 37.90469 | 23.90297 | 735 ft | 118 kts | 35° |
| 2026-04-23 07:12 | 37.91127 | 23.90925 | 590 ft | 118 kts | 36° |
| 2026-04-23 07:12 | 37.91792 | 23.91546 | 432 ft | 118 kts | 35° |
| 2026-04-23 07:12 | 37.92441 | 23.92166 | 282 ft | 114 kts | 36° |
| 2026-04-23 07:13 | 37.92971 | 23.92669 | 253 ft | 65 kts | 36° |
| 2026-04-23 07:13 | 37.93230 | 23.92916 | 255 ft | 41 kts | 35° |
| 2026-04-23 07:13 | 37.93393 | 23.93069 | 256 ft | 27 kts | 38° |
| 2026-04-23 07:13 | 37.93509 | 23.93194 | 260 ft | 9 kts | 47° |
| 2026-04-23 07:14 | 37.93557 | 23.93267 | 260 ft | 12 kts | 58° |
| 2026-04-23 07:14 | 37.93589 | 23.93339 | 260 ft | 3 kts | 64° |
| 2026-04-23 07:14 | 37.93606 | 23.93384 | 260 ft | 7 kts | 66° |
| 2026-04-23 07:14 | 37.93619 | 23.93424 | 261 ft | 3 kts | 67° |
| 2026-04-23 07:15 | 37.93628 | 23.93460 | 262 ft | 5 kts | 91° |
| 2026-04-23 07:15 | 37.93586 | 23.93515 | 262 ft | 13 kts | 175° |
| 2026-04-23 07:15 | 37.93498 | 23.93447 | 260 ft | 17 kts | 217° |
| 2026-04-23 07:15 | 37.93393 | 23.93347 | 258 ft | 18 kts | 218° |
| 2026-04-23 07:16 | 37.93372 | 23.93327 | 257 ft | 5 kts | 216° |
| 2026-04-23 07:16 | 37.93325 | 23.93284 | 256 ft | 11 kts | 216° |
| 2026-04-23 07:16 | 37.93245 | 23.93247 | 255 ft | 15 kts | 155° |
| 2026-04-23 07:16 | 37.93247 | 23.93352 | 254 ft | 15 kts | 38° |
| 2026-04-23 07:17 | 37.93338 | 23.93438 | 257 ft | 16 kts | 36° |
| 2026-04-23 07:17 | 37.93430 | 23.93439 | 258 ft | 13 kts | 322° |
| 2026-04-23 07:17 | 37.93519 | 23.93467 | 260 ft | 15 kts | 37° |
| 2026-04-23 07:17 | 37.93614 | 23.93559 | 262 ft | 20 kts | 37° |
| 2026-04-23 07:18 | 37.93746 | 23.93683 | 265 ft | 24 kts | 36° |
| 2026-04-23 07:18 | 37.93882 | 23.93814 | 269 ft | 24 kts | 36° |
| 2026-04-23 07:18 | 37.94028 | 23.93951 | 269 ft | 27 kts | 39° |
| 2026-04-23 07:18 | 37.94180 | 23.94096 | 272 ft | 27 kts | 37° |
| 2026-04-23 07:19 | 37.94336 | 23.94245 | 275 ft | 28 kts | 37° |
| 2026-04-23 07:19 | 37.94494 | 23.94395 | 279 ft | 28 kts | 37° |
| 2026-04-23 07:19 | 37.94646 | 23.94539 | 284 ft | 20 kts | 37° |
| 2026-04-23 07:19 | 37.94674 | 23.94642 | 286 ft | 14 kts | 126° |
| 2026-04-23 07:20 | 37.94611 | 23.94749 | 289 ft | 16 kts | 126° |
| 2026-04-23 07:20 | 37.94539 | 23.94869 | 291 ft | 18 kts | 126° |
| 2026-04-23 07:20 | 37.94450 | 23.95020 | 293 ft | 25 kts | 126° |
| 2026-04-23 07:20 | 37.94334 | 23.95212 | 292 ft | 28 kts | 126° |
| 2026-04-23 07:21 | 37.94211 | 23.95419 | 286 ft | 30 kts | 127° |
| 2026-04-23 07:21 | 37.94143 | 23.95547 | 282 ft | 11 kts | 81° |
| 2026-04-23 07:21 | 37.94209 | 23.95618 | 282 ft | 13 kts | 38° |
| 2026-04-23 07:21 | 37.94241 | 23.95641 | 283 ft | 4 kts | 341° |
| 2026-04-23 07:22 | 37.94265 | 23.95606 | 284 ft | 6 kts | 307° |
| 2026-04-23 07:22 | 37.94298 | 23.95553 | 285 ft | 8 kts | 309° |
| 2026-04-23 07:22 | 37.94334 | 23.95497 | 287 ft | 4 kts | 335° |
| 2026-04-23 07:22 | 37.94360 | 23.95514 | 287 ft | 5 kts | 37° |
| 2026-04-23 07:23 | 37.94384 | 23.95537 | 287 ft | 2 kts | 37° |
| 2026-04-23 07:23 | 37.94385 | 23.95538 | 287 ft | 0 kts | 37° |